sensor_id;sensor_type;location;lat;lon;timestamp;pressure;altitude;pressure_sealevel;temperature;humidity
3796;BME280;1913;50.660;7.834;2023-02-17T00:01:15;97767.56;;;7.16;100.00
3796;BME280;1913;50.660;7.834;2023-02-17T00:03:48;97762.66;;;7.13;100.00
3796;BME280;1913;50.660;7.834;2023-02-17T00:06:15;97764.78;;;7.18;100.00
3796;BME280;1913;50.660;7.834;2023-02-17T00:08:51;97751.03;;;7.24;100.00
3796;BME280;1913;50.660;7.834;2023-02-17T00:11:17;97751.53;;;7.28;100.00
3796;BME280;1913;50.660;7.834;2023-02-17T00:13:46;97746.63;;;7.33;100.00
3796;BME280;1913;50.660;7.834;2023-02-17T00:16:17;97740.41;;;7.34;100.00
3796;BME280;1913;50.660;7.834;2023-02-17T00:18:46;97741.88;;;7.36;100.00
3796;BME280;1913;50.660;7.834;2023-02-17T00:21:15;97739.75;;;7.32;100.00
3796;BME280;1913;50.660;7.834;2023-02-17T00:23:45;97743.66;;;7.36;100.00
3796;BME280;1913;50.660;7.834;2023-02-17T00:26:11;97735.66;;;7.37;100.00
3796;BME280;1913;50.660;7.834;2023-02-17T00:28:37;97740.38;;;7.42;100.00
3796;BME280;1913;50.660;7.834;2023-02-17T00:31:14;97730.56;;;7.44;100.00
3796;BME280;1913;50.660;7.834;2023-02-17T00:33:43;97724.69;;;7.42;100.00
3796;BME280;1913;50.660;7.834;2023-02-17T00:36:15;97724.88;;;7.40;100.00
3796;BME280;1913;50.660;7.834;2023-02-17T00:38:45;97723.34;;;7.46;100.00
3796;BME280;1913;50.660;7.834;2023-02-17T00:41:23;97727.78;;;7.46;100.00
3796;BME280;1913;50.660;7.834;2023-02-17T00:43:52;97729.41;;;7.47;100.00
3796;BME280;1913;50.660;7.834;2023-02-17T00:46:20;97730.25;;;7.47;100.00
3796;BME280;1913;50.660;7.834;2023-02-17T00:48:48;97738.38;;;7.52;100.00
3796;BME280;1913;50.660;7.834;2023-02-17T00:51:18;97726.59;;;7.56;100.00
3796;BME280;1913;50.660;7.834;2023-02-17T00:53:44;97731.81;;;7.56;100.00
3796;BME280;1913;50.660;7.834;2023-02-17T00:56:10;97738.53;;;7.59;100.00
3796;BME280;1913;50.660;7.834;2023-02-17T00:58:36;97734.28;;;7.50;100.00
3796;BME280;1913;50.660;7.834;2023-02-17T01:01:02;97729.38;;;7.55;100.00
3796;BME280;1913;50.660;7.834;2023-02-17T01:03:28;97721.53;;;7.55;100.00
3796;BME280;1913;50.660;7.834;2023-02-17T01:06:03;97724.97;;;7.55;100.00
3796;BME280;1913;50.660;7.834;2023-02-17T01:08:31;97730.00;;;7.57;100.00
3796;BME280;1913;50.660;7.834;2023-02-17T01:11:02;97721.19;;;7.58;100.00
3796;BME280;1913;50.660;7.834;2023-02-17T01:13:30;97730.34;;;7.62;100.00
3796;BME280;1913;50.660;7.834;2023-02-17T01:16:01;97727.84;;;7.68;100.00
3796;BME280;1913;50.660;7.834;2023-02-17T01:18:45;97720.50;;;7.72;100.00
3796;BME280;1913;50.660;7.834;2023-02-17T01:21:22;97720.59;;;7.79;100.00
3796;BME280;1913;50.660;7.834;2023-02-17T01:23:57;97718.44;;;7.82;100.00
3796;BME280;1913;50.660;7.834;2023-02-17T01:26:25;97715.72;;;7.76;100.00
3796;BME280;1913;50.660;7.834;2023-02-17T01:28:54;97707.50;;;7.79;100.00
3796;BME280;1913;50.660;7.834;2023-02-17T01:31:22;97708.16;;;7.81;100.00
3796;BME280;1913;50.660;7.834;2023-02-17T01:33:48;97704.88;;;7.79;100.00
3796;BME280;1913;50.660;7.834;2023-02-17T01:36:16;97690.19;;;7.78;100.00
3796;BME280;1913;50.660;7.834;2023-02-17T01:38:42;97695.13;;;7.73;100.00
3796;BME280;1913;50.660;7.834;2023-02-17T01:41:08;97695.13;;;7.73;100.00
3796;BME280;1913;50.660;7.834;2023-02-17T01:43:37;97679.84;;;7.84;100.00
3796;BME280;1913;50.660;7.834;2023-02-17T01:46:08;97677.88;;;7.86;100.00
3796;BME280;1913;50.660;7.834;2023-02-17T01:48:39;97677.75;;;7.80;100.00
3796;BME280;1913;50.660;7.834;2023-02-17T01:51:17;97676.25;;;7.85;100.00
3796;BME280;1913;50.660;7.834;2023-02-17T01:53:51;97665.16;;;7.83;100.00
3796;BME280;1913;50.660;7.834;2023-02-17T01:56:22;97668.50;;;7.92;100.00
3796;BME280;1913;50.660;7.834;2023-02-17T01:59:04;97661.31;;;7.94;100.00
3796;BME280;1913;50.660;7.834;2023-02-17T02:01:39;97659.63;;;8.01;100.00
3796;BME280;1913;50.660;7.834;2023-02-17T02:04:05;97659.44;;;8.03;100.00
3796;BME280;1913;50.660;7.834;2023-02-17T02:06:35;97662.59;;;7.98;100.00
3796;BME280;1913;50.660;7.834;2023-02-17T02:09:16;97652.41;;;8.03;100.00
3796;BME280;1913;50.660;7.834;2023-02-17T02:11:43;97643.41;;;8.06;100.00
3796;BME280;1913;50.660;7.834;2023-02-17T02:14:14;97646.28;;;8.11;100.00
3796;BME280;1913;50.660;7.834;2023-02-17T02:16:55;97636.09;;;8.01;100.00
3796;BME280;1913;50.660;7.834;2023-02-17T02:20:07;97630.66;;;8.03;100.00
3796;BME280;1913;50.660;7.834;2023-02-17T02:22:42;97630.78;;;8.09;100.00
3796;BME280;1913;50.660;7.834;2023-02-17T02:28:51;97625.13;;;8.21;100.00
3796;BME280;1913;50.660;7.834;2023-02-17T02:34:21;97611.75;;;8.15;100.00
3796;BME280;1913;50.660;7.834;2023-02-17T02:37:01;97618.81;;;8.15;100.00
3796;BME280;1913;50.660;7.834;2023-02-17T02:39:43;97619.41;;;8.17;100.00
3796;BME280;1913;50.660;7.834;2023-02-17T02:42:18;97622.22;;;8.15;100.00
3796;BME280;1913;50.660;7.834;2023-02-17T02:44:53;97627.28;;;8.17;100.00
3796;BME280;1913;50.660;7.834;2023-02-17T02:47:56;97626.38;;;8.25;100.00
3796;BME280;1913;50.660;7.834;2023-02-17T02:59:09;97620.44;;;8.31;100.00
3796;BME280;1913;50.660;7.834;2023-02-17T03:01:49;97613.13;;;8.26;100.00
3796;BME280;1913;50.660;7.834;2023-02-17T03:04:24;97616.38;;;8.28;100.00
3796;BME280;1913;50.660;7.834;2023-02-17T03:07:16;97615.09;;;8.24;100.00
3796;BME280;1913;50.660;7.834;2023-02-17T03:09:54;97628.97;;;8.10;100.00
3796;BME280;1913;50.660;7.834;2023-02-17T03:12:21;97618.72;;;8.23;100.00
3796;BME280;1913;50.660;7.834;2023-02-17T03:14:55;97624.13;;;8.22;100.00
3796;BME280;1913;50.660;7.834;2023-02-17T03:17:25;97622.81;;;8.26;100.00
3796;BME280;1913;50.660;7.834;2023-02-17T03:19:51;97621.41;;;8.15;100.00
3796;BME280;1913;50.660;7.834;2023-02-17T03:22:30;97614.66;;;8.21;100.00
3796;BME280;1913;50.660;7.834;2023-02-17T03:24:56;97628.72;;;8.20;100.00
3796;BME280;1913;50.660;7.834;2023-02-17T03:27:27;97617.91;;;8.23;100.00
3796;BME280;1913;50.660;7.834;2023-02-17T03:29:56;97612.22;;;8.19;100.00
3796;BME280;1913;50.660;7.834;2023-02-17T03:32:24;97616.56;;;8.27;100.00
3796;BME280;1913;50.660;7.834;2023-02-17T03:34:50;97619.19;;;8.27;100.00
3796;BME280;1913;50.660;7.834;2023-02-17T03:37:16;97616.38;;;8.28;100.00
3796;BME280;1913;50.660;7.834;2023-02-17T03:39:44;97608.16;;;8.31;100.00
3796;BME280;1913;50.660;7.834;2023-02-17T03:42:12;97611.13;;;8.28;100.00
3796;BME280;1913;50.660;7.834;2023-02-17T03:44:45;97602.38;;;8.36;100.00
3796;BME280;1913;50.660;7.834;2023-02-17T03:47:13;97604.03;;;8.37;100.00
3796;BME280;1913;50.660;7.834;2023-02-17T03:49:41;97589.84;;;8.31;100.00
3796;BME280;1913;50.660;7.834;2023-02-17T03:52:09;97594.34;;;8.23;100.00
3796;BME280;1913;50.660;7.834;2023-02-17T03:54:39;97583.25;;;8.35;100.00
3796;BME280;1913;50.660;7.834;2023-02-17T03:57:07;97583.25;;;8.35;100.00
3796;BME280;1913;50.660;7.834;2023-02-17T03:59:38;97582.13;;;8.38;100.00
3796;BME280;1913;50.660;7.834;2023-02-17T04:02:06;97589.69;;;8.33;100.00
3796;BME280;1913;50.660;7.834;2023-02-17T04:04:32;97590.50;;;8.33;100.00
3796;BME280;1913;50.660;7.834;2023-02-17T04:07:00;97587.88;;;8.33;100.00
3796;BME280;1913;50.660;7.834;2023-02-17T04:09:27;97589.28;;;8.36;100.00
3796;BME280;1913;50.660;7.834;2023-02-17T04:11:56;97579.72;;;8.28;100.00
3796;BME280;1913;50.660;7.834;2023-02-17T04:14:24;97583.16;;;8.29;100.00
3796;BME280;1913;50.660;7.834;2023-02-17T04:17:10;97584.44;;;8.33;100.00
3796;BME280;1913;50.660;7.834;2023-02-17T04:19:49;97583.59;;;8.32;100.00
3796;BME280;1913;50.660;7.834;2023-02-17T04:22:14;97587.41;;;8.30;100.00
3796;BME280;1913;50.660;7.834;2023-02-17T04:24:40;97590.19;;;8.28;100.00
3796;BME280;1913;50.660;7.834;2023-02-17T04:27:06;97596.53;;;8.34;100.00
3796;BME280;1913;50.660;7.834;2023-02-17T04:29:36;97596.44;;;8.27;100.00
3796;BME280;1913;50.660;7.834;2023-02-17T04:32:01;97596.88;;;8.31;100.00
3796;BME280;1913;50.660;7.834;2023-02-17T04:34:35;97606.34;;;8.32;100.00
3796;BME280;1913;50.660;7.834;2023-02-17T04:37:01;97599.97;;;8.34;100.00
3796;BME280;1913;50.660;7.834;2023-02-17T04:39:29;97609.28;;;8.37;100.00
3796;BME280;1913;50.660;7.834;2023-02-17T04:42:00;97605.34;;;8.41;100.00
3796;BME280;1913;50.660;7.834;2023-02-17T04:44:30;97608.97;;;8.40;100.00
3796;BME280;1913;50.660;7.834;2023-02-17T04:46:58;97602.78;;;8.33;100.00
3796;BME280;1913;50.660;7.834;2023-02-17T04:49:24;97605.59;;;8.46;100.00
3796;BME280;1913;50.660;7.834;2023-02-17T04:51:53;97605.34;;;8.41;100.00
3796;BME280;1913;50.660;7.834;2023-02-17T04:54:18;97605.34;;;8.41;100.00
3796;BME280;1913;50.660;7.834;2023-02-17T04:56:52;97611.50;;;8.48;100.00
3796;BME280;1913;50.660;7.834;2023-02-17T04:59:23;97613.47;;;8.46;100.00
3796;BME280;1913;50.660;7.834;2023-02-17T05:01:54;97617.19;;;8.52;100.00
3796;BME280;1913;50.660;7.834;2023-02-17T05:04:22;97616.03;;;8.54;100.00
3796;BME280;1913;50.660;7.834;2023-02-17T05:06:48;97616.53;;;8.50;100.00
3796;BME280;1913;50.660;7.834;2023-02-17T05:09:15;97601.66;;;8.50;100.00
3796;BME280;1913;50.660;7.834;2023-02-17T05:11:41;97606.06;;;8.50;100.00
3796;BME280;1913;50.660;7.834;2023-02-17T05:14:12;97603.38;;;8.58;100.00
3796;BME280;1913;50.660;7.834;2023-02-17T05:16:38;97610.13;;;8.52;100.00
3796;BME280;1913;50.660;7.834;2023-02-17T05:19:04;97614.09;;;8.48;100.00
3796;BME280;1913;50.660;7.834;2023-02-17T05:21:30;97613.31;;;8.48;100.00
3796;BME280;1913;50.660;7.834;2023-02-17T05:23:57;97616.38;;;8.51;100.00
3796;BME280;1913;50.660;7.834;2023-02-17T05:26:23;97607.06;;;8.49;100.00
3796;BME280;1913;50.660;7.834;2023-02-17T05:28:49;97599.84;;;8.51;100.00
3796;BME280;1913;50.660;7.834;2023-02-17T05:31:28;97597.75;;;8.46;100.00
3796;BME280;1913;50.660;7.834;2023-02-17T05:33:54;97606.16;;;8.56;100.00
3796;BME280;1913;50.660;7.834;2023-02-17T05:36:20;97591.00;;;8.52;100.00
3796;BME280;1913;50.660;7.834;2023-02-17T05:38:48;97592.97;;;8.50;100.00
3796;BME280;1913;50.660;7.834;2023-02-17T05:41:16;97591.44;;;8.55;100.00
3796;BME280;1913;50.660;7.834;2023-02-17T05:43:45;97587.28;;;8.46;100.00
3796;BME280;1913;50.660;7.834;2023-02-17T05:46:13;97584.94;;;8.51;100.00
3796;BME280;1913;50.660;7.834;2023-02-17T05:48:39;97578.34;;;8.41;100.00
3796;BME280;1913;50.660;7.834;2023-02-17T05:51:05;97588.31;;;8.37;100.00
3796;BME280;1913;50.660;7.834;2023-02-17T05:53:36;97585.72;;;8.37;100.00
3796;BME280;1913;50.660;7.834;2023-02-17T05:56:12;97579.97;;;8.42;100.00
3796;BME280;1913;50.660;7.834;2023-02-17T05:58:44;97579.59;;;8.45;100.00
3796;BME280;1913;50.660;7.834;2023-02-17T06:01:14;97588.31;;;8.37;100.00
3796;BME280;1913;50.660;7.834;2023-02-17T06:03:40;97588.09;;;8.47;100.00
3796;BME280;1913;50.660;7.834;2023-02-17T06:06:08;97586.53;;;8.37;100.00
3796;BME280;1913;50.660;7.834;2023-02-17T06:08:34;97578.69;;;8.37;100.00
3796;BME280;1913;50.660;7.834;2023-02-17T06:11:11;97588.63;;;8.42;100.00
3796;BME280;1913;50.660;7.834;2023-02-17T06:13:37;97590.94;;;8.37;100.00
3796;BME280;1913;50.660;7.834;2023-02-17T06:16:05;97589.84;;;8.31;100.00
3796;BME280;1913;50.660;7.834;2023-02-17T06:18:33;97595.06;;;8.31;100.00
3796;BME280;1913;50.660;7.834;2023-02-17T06:20:59;97600.31;;;8.31;100.00
3796;BME280;1913;50.660;7.834;2023-02-17T06:23:25;97598.16;;;8.35;100.00
3796;BME280;1913;50.660;7.834;2023-02-17T06:25:54;97597.16;;;8.36;100.00
3796;BME280;1913;50.660;7.834;2023-02-17T06:28:19;97613.69;;;8.36;100.00
3796;BME280;1913;50.660;7.834;2023-02-17T06:30:45;97610.03;;;8.46;100.00
3796;BME280;1913;50.660;7.834;2023-02-17T06:33:16;97609.53;;;8.50;100.00
3796;BME280;1913;50.660;7.834;2023-02-17T06:35:51;97608.16;;;8.39;100.00
3796;BME280;1913;50.660;7.834;2023-02-17T06:38:17;97611.56;;;8.40;100.00
3796;BME280;1913;50.660;7.834;2023-02-17T06:40:47;97604.88;;;8.37;100.00
3796;BME280;1913;50.660;7.834;2023-02-17T06:43:15;97597.53;;;8.33;100.00
3796;BME280;1913;50.660;7.834;2023-02-17T06:45:40;97596.69;;;8.32;100.00
3796;BME280;1913;50.660;7.834;2023-02-17T06:48:11;97592.88;;;8.43;100.00
3796;BME280;1913;50.660;7.834;2023-02-17T06:50:37;97590.28;;;8.43;100.00
3796;BME280;1913;50.660;7.834;2023-02-17T06:53:05;97583.38;;;8.42;100.00
3796;BME280;1913;50.660;7.834;2023-02-17T06:55:33;97590.19;;;8.51;100.00
3796;BME280;1913;50.660;7.834;2023-02-17T06:58:01;97581.13;;;8.39;100.00
3796;BME280;1913;50.660;7.834;2023-02-17T07:00:27;97596.94;;;8.46;100.00
3796;BME280;1913;50.660;7.834;2023-02-17T07:02:53;97596.41;;;8.50;100.00
3796;BME280;1913;50.660;7.834;2023-02-17T07:05:18;97595.78;;;8.48;100.00
3796;BME280;1913;50.660;7.834;2023-02-17T07:07:44;97595.41;;;8.51;100.00
3796;BME280;1913;50.660;7.834;2023-02-17T07:10:12;97599.03;;;8.50;100.00
3796;BME280;1913;50.660;7.834;2023-02-17T07:12:45;97602.63;;;8.49;100.00
3796;BME280;1913;50.660;7.834;2023-02-17T07:15:13;97603.09;;;8.53;100.00
3796;BME280;1913;50.660;7.834;2023-02-17T07:17:39;97598.03;;;8.51;100.00
3796;BME280;1913;50.660;7.834;2023-02-17T07:20:08;97600.47;;;8.53;100.00
3796;BME280;1913;50.660;7.834;2023-02-17T07:22:40;97602.03;;;8.62;100.00
3796;BME280;1913;50.660;7.834;2023-02-17T07:25:06;97595.16;;;8.61;100.00
3796;BME280;1913;50.660;7.834;2023-02-17T07:27:35;97599.66;;;8.67;100.00
3796;BME280;1913;50.660;7.834;2023-02-17T07:30:02;97594.78;;;8.64;100.00
3796;BME280;1913;50.660;7.834;2023-02-17T07:32:30;97601.03;;;8.63;100.00
3796;BME280;1913;50.660;7.834;2023-02-17T07:35:01;97604.44;;;8.63;100.00
3796;BME280;1913;50.660;7.834;2023-02-17T07:37:29;97603.84;;;8.61;100.00
3796;BME280;1913;50.660;7.834;2023-02-17T07:40:22;97605.53;;;8.54;100.00
3796;BME280;1913;50.660;7.834;2023-02-17T07:42:52;97607.16;;;8.55;100.00
3796;BME280;1913;50.660;7.834;2023-02-17T07:45:18;97607.16;;;8.55;100.00
3796;BME280;1913;50.660;7.834;2023-02-17T07:47:50;97608.16;;;8.54;100.00
3796;BME280;1913;50.660;7.834;2023-02-17T07:50:16;97614.09;;;8.48;100.00
3796;BME280;1913;50.660;7.834;2023-02-17T07:52:44;97614.00;;;8.42;100.00
3796;BME280;1913;50.660;7.834;2023-02-17T07:55:15;97609.94;;;8.39;100.00
3796;BME280;1913;50.660;7.834;2023-02-17T07:57:43;97615.47;;;8.44;100.00
3796;BME280;1913;50.660;7.834;2023-02-17T08:00:09;97624.03;;;8.38;100.00
3796;BME280;1913;50.660;7.834;2023-02-17T08:02:43;97631.56;;;8.33;100.00
3796;BME280;1913;50.660;7.834;2023-02-17T08:05:10;97620.00;;;8.27;100.00
3796;BME280;1913;50.660;7.834;2023-02-17T08:07:36;97616.31;;;8.36;100.00
3796;BME280;1913;50.660;7.834;2023-02-17T08:10:01;97610.13;;;8.37;100.00
3796;BME280;1913;50.660;7.834;2023-02-17T08:12:48;97599.31;;;8.32;100.00
3796;BME280;1913;50.660;7.834;2023-02-17T08:15:35;97612.41;;;8.32;100.00
3796;BME280;1913;50.660;7.834;2023-02-17T08:18:04;97619.91;;;8.35;100.00
3796;BME280;1913;50.660;7.834;2023-02-17T08:20:32;97622.25;;;8.30;100.00
3796;BME280;1913;50.660;7.834;2023-02-17T08:22:58;97616.63;;;8.42;100.00
3796;BME280;1913;50.660;7.834;2023-02-17T08:25:33;97613.88;;;8.35;100.00
3796;BME280;1913;50.660;7.834;2023-02-17T08:28:03;97615.34;;;8.37;100.00
3796;BME280;1913;50.660;7.834;2023-02-17T08:30:34;97613.00;;;8.43;100.00
3796;BME280;1913;50.660;7.834;2023-02-17T08:33:05;97623.13;;;8.46;100.00
3796;BME280;1913;50.660;7.834;2023-02-17T08:35:44;97610.94;;;8.53;100.00
3796;BME280;1913;50.660;7.834;2023-02-17T08:38:10;97615.13;;;8.62;100.00
3796;BME280;1913;50.660;7.834;2023-02-17T08:40:39;97617.84;;;8.54;100.00
3796;BME280;1913;50.660;7.834;2023-02-17T08:43:10;97610.59;;;8.71;100.00
3796;BME280;1913;50.660;7.834;2023-02-17T08:45:38;97605.00;;;8.59;100.00
3796;BME280;1913;50.660;7.834;2023-02-17T08:48:04;97607.06;;;8.63;100.00
3796;BME280;1913;50.660;7.834;2023-02-17T08:50:30;97600.13;;;8.71;100.00
3796;BME280;1913;50.660;7.834;2023-02-17T08:53:04;97603.03;;;8.76;100.00
3796;BME280;1913;50.660;7.834;2023-02-17T08:55:40;97605.47;;;8.77;100.00
3796;BME280;1913;50.660;7.834;2023-02-17T08:58:06;97605.34;;;8.85;100.00
3796;BME280;1913;50.660;7.834;2023-02-17T09:00:31;97613.41;;;8.99;100.00
3796;BME280;1913;50.660;7.834;2023-02-17T09:03:00;97615.22;;;8.98;100.00
3796;BME280;1913;50.660;7.834;2023-02-17T09:05:29;97611.94;;;8.96;100.00
3796;BME280;1913;50.660;7.834;2023-02-17T09:07:59;97617.22;;;9.11;100.00
3796;BME280;1913;50.660;7.834;2023-02-17T09:10:27;97625.44;;;9.08;100.00
3796;BME280;1913;50.660;7.834;2023-02-17T09:12:56;97638.19;;;9.11;100.00
3796;BME280;1913;50.660;7.834;2023-02-17T09:15:27;97632.75;;;9.13;100.00
3796;BME280;1913;50.660;7.834;2023-02-17T09:17:55;97635.16;;;9.14;100.00
3796;BME280;1913;50.660;7.834;2023-02-17T09:20:31;97643.13;;;9.21;100.00
3796;BME280;1913;50.660;7.834;2023-02-17T09:23:02;97653.53;;;9.29;100.00
3796;BME280;1913;50.660;7.834;2023-02-17T09:25:27;97640.94;;;9.39;100.00
3796;BME280;1913;50.660;7.834;2023-02-17T09:27:53;97638.16;;;9.41;100.00
3796;BME280;1913;50.660;7.834;2023-02-17T09:30:20;97639.13;;;9.54;100.00
3796;BME280;1913;50.660;7.834;2023-02-17T09:32:53;97630.75;;;9.66;100.00
3796;BME280;1913;50.660;7.834;2023-02-17T09:35:28;97625.47;;;9.80;100.00
3796;BME280;1913;50.660;7.834;2023-02-17T09:37:56;97614.47;;;9.92;100.00
3796;BME280;1913;50.660;7.834;2023-02-17T09:43:02;97618.53;;;9.94;100.00
3796;BME280;1913;50.660;7.834;2023-02-17T09:45:33;97619.53;;;10.15;100.00
3796;BME280;1913;50.660;7.834;2023-02-17T09:48:10;97630.16;;;10.28;100.00
3796;BME280;1913;50.660;7.834;2023-02-17T09:50:44;97621.22;;;10.44;100.00
3796;BME280;1913;50.660;7.834;2023-02-17T09:56:13;97616.09;;;10.36;100.00
3796;BME280;1913;50.660;7.834;2023-02-17T09:58:46;97625.88;;;10.48;100.00
3796;BME280;1913;50.660;7.834;2023-02-17T10:01:18;97617.66;;;10.58;100.00
3796;BME280;1913;50.660;7.834;2023-02-17T10:06:37;97612.47;;;11.06;100.00
3796;BME280;1913;50.660;7.834;2023-02-17T10:09:18;97611.97;;;11.17;100.00
3796;BME280;1913;50.660;7.834;2023-02-17T10:12:02;97625.53;;;11.27;100.00
3796;BME280;1913;50.660;7.834;2023-02-17T10:14:37;97628.06;;;11.56;100.00
3796;BME280;1913;50.660;7.834;2023-02-17T10:17:12;97615.16;;;11.61;100.00
3796;BME280;1913;50.660;7.834;2023-02-17T10:19:55;97612.69;;;11.53;100.00
3796;BME280;1913;50.660;7.834;2023-02-17T10:22:29;97620.22;;;11.69;100.00
3796;BME280;1913;50.660;7.834;2023-02-17T10:25:03;97617.97;;;11.59;100.00
3796;BME280;1913;50.660;7.834;2023-02-17T10:28:17;97622.69;;;11.70;100.00
3796;BME280;1913;50.660;7.834;2023-02-17T10:31:38;97633.75;;;11.59;100.00
3796;BME280;1913;50.660;7.834;2023-02-17T10:34:01;97620.00;;;11.57;100.00
3796;BME280;1913;50.660;7.834;2023-02-17T10:36:56;97626.72;;;11.73;100.00
3796;BME280;1913;50.660;7.834;2023-02-17T10:39:48;97623.53;;;11.91;100.00
3796;BME280;1913;50.660;7.834;2023-02-17T10:42:24;97626.97;;;11.91;100.00
3796;BME280;1913;50.660;7.834;2023-02-17T10:45:17;97622.97;;;12.09;100.00
3796;BME280;1913;50.660;7.834;2023-02-17T10:47:41;97635.31;;;12.02;100.00
3796;BME280;1913;50.660;7.834;2023-02-17T10:50:16;97629.66;;;12.11;100.00
3796;BME280;1913;50.660;7.834;2023-02-17T10:52:43;97628.66;;;12.32;100.00
3796;BME280;1913;50.660;7.834;2023-02-17T10:57:57;97624.59;;;12.16;100.00
3796;BME280;1913;50.660;7.834;2023-02-17T11:00:30;97632.28;;;12.44;100.00
3796;BME280;1913;50.660;7.834;2023-02-17T11:02:56;97623.34;;;12.79;100.00
3796;BME280;1913;50.660;7.834;2023-02-17T11:05:27;97615.81;;;12.96;100.00
3796;BME280;1913;50.660;7.834;2023-02-17T11:08:01;97609.28;;;13.11;100.00
3796;BME280;1913;50.660;7.834;2023-02-17T11:10:35;97605.06;;;12.90;100.00
3796;BME280;1913;50.660;7.834;2023-02-17T11:13:41;97604.25;;;12.90;100.00
3796;BME280;1913;50.660;7.834;2023-02-17T11:16:25;97596.00;;;12.66;100.00
3796;BME280;1913;50.660;7.834;2023-02-17T11:18:51;97606.91;;;12.77;100.00
3796;BME280;1913;50.660;7.834;2023-02-17T11:21:42;97602.31;;;12.39;100.00
3796;BME280;1913;50.660;7.834;2023-02-17T11:24:10;97599.06;;;12.43;100.00
3796;BME280;1913;50.660;7.834;2023-02-17T11:26:35;97606.16;;;12.50;100.00
3796;BME280;1913;50.660;7.834;2023-02-17T11:29:16;97611.84;;;12.46;100.00
3796;BME280;1913;50.660;7.834;2023-02-17T11:31:53;97604.72;;;12.54;100.00
3796;BME280;1913;50.660;7.834;2023-02-17T11:34:22;97605.94;;;12.64;100.00
3796;BME280;1913;50.660;7.834;2023-02-17T11:37:00;97598.66;;;12.53;100.00
3796;BME280;1913;50.660;7.834;2023-02-17T11:39:26;97592.97;;;12.63;100.00
3796;BME280;1913;50.660;7.834;2023-02-17T11:41:52;97573.44;;;12.84;100.00
3796;BME280;1913;50.660;7.834;2023-02-17T11:44:26;97575.47;;;12.88;100.00
3796;BME280;1913;50.660;7.834;2023-02-17T11:52:28;97567.56;;;12.88;100.00
3796;BME280;1913;50.660;7.834;2023-02-17T11:55:18;97561.66;;;12.93;100.00
3796;BME280;1913;50.660;7.834;2023-02-17T12:00:42;97560.94;;;13.17;100.00
3796;BME280;1913;50.660;7.834;2023-02-17T12:03:40;97550.16;;;13.32;100.00
3796;BME280;1913;50.660;7.834;2023-02-17T12:06:16;97548.19;;;13.59;100.00
3796;BME280;1913;50.660;7.834;2023-02-17T12:11:54;97547.47;;;13.39;100.00
3796;BME280;1913;50.660;7.834;2023-02-17T12:19:54;97543.72;;;13.08;100.00
3796;BME280;1913;50.660;7.834;2023-02-17T12:22:41;97545.13;;;13.24;100.00
3796;BME280;1913;50.660;7.834;2023-02-17T12:25:22;97524.03;;;13.11;100.00
3796;BME280;1913;50.660;7.834;2023-02-17T12:31:02;97528.28;;;13.12;100.00
3796;BME280;1913;50.660;7.834;2023-02-17T12:36:04;97532.56;;;13.51;100.00
3796;BME280;1913;50.660;7.834;2023-02-17T12:38:34;97534.06;;;13.72;100.00
3796;BME280;1913;50.660;7.834;2023-02-17T12:41:05;97538.34;;;13.73;100.00
3796;BME280;1913;50.660;7.834;2023-02-17T12:43:41;97521.03;;;13.77;100.00
3796;BME280;1913;50.660;7.834;2023-02-17T12:46:11;97523.47;;;13.79;100.00
3796;BME280;1913;50.660;7.834;2023-02-17T12:51:51;97525.00;;;14.36;100.00
3796;BME280;1913;50.660;7.834;2023-02-17T12:54:32;97524.81;;;14.38;100.00
3796;BME280;1913;50.660;7.834;2023-02-17T12:59:33;97508.53;;;14.78;100.00
3796;BME280;1913;50.660;7.834;2023-02-17T13:02:03;97502.31;;;15.21;100.00
3796;BME280;1913;50.660;7.834;2023-02-17T13:04:31;97496.13;;;14.78;100.00
3796;BME280;1913;50.660;7.834;2023-02-17T13:07:14;97505.78;;;14.73;100.00
3796;BME280;1913;50.660;7.834;2023-02-17T13:09:47;97489.00;;;14.79;100.00
3796;BME280;1913;50.660;7.834;2023-02-17T13:14:58;97489.69;;;15.04;100.00
3796;BME280;1913;50.660;7.834;2023-02-17T13:22:41;97477.97;;;14.45;100.00
3796;BME280;1913;50.660;7.834;2023-02-17T13:25:11;97493.22;;;14.43;100.00
3796;BME280;1913;50.660;7.834;2023-02-17T13:27:38;97484.75;;;14.16;100.00
3796;BME280;1913;50.660;7.834;2023-02-17T13:32:33;97494.81;;;14.26;100.00
3796;BME280;1913;50.660;7.834;2023-02-17T13:37:47;97492.41;;;14.24;100.00
3796;BME280;1913;50.660;7.834;2023-02-17T13:42:48;97475.56;;;14.19;100.00
3796;BME280;1913;50.660;7.834;2023-02-17T13:45:26;97474.47;;;14.26;100.00
3796;BME280;1913;50.660;7.834;2023-02-17T13:47:55;97468.53;;;14.31;100.00
3796;BME280;1913;50.660;7.834;2023-02-17T13:52:57;97459.50;;;14.38;100.00
3796;BME280;1913;50.660;7.834;2023-02-17T13:55:24;97463.94;;;14.45;100.00
3796;BME280;1913;50.660;7.834;2023-02-17T13:57:54;97463.19;;;14.37;100.00
3796;BME280;1913;50.660;7.834;2023-02-17T14:00:26;97463.19;;;14.37;100.00
3796;BME280;1913;50.660;7.834;2023-02-17T14:02:55;97464.47;;;14.53;100.00
3796;BME280;1913;50.660;7.834;2023-02-17T14:05:26;97465.97;;;14.43;100.00
3796;BME280;1913;50.660;7.834;2023-02-17T14:07:56;97445.13;;;14.34;100.00
3796;BME280;1913;50.660;7.834;2023-02-17T14:10:24;97455.34;;;14.31;100.00
3796;BME280;1913;50.660;7.834;2023-02-17T14:12:51;97448.69;;;14.22;100.00
3796;BME280;1913;50.660;7.834;2023-02-17T14:15:21;97448.03;;;14.26;100.00
3796;BME280;1913;50.660;7.834;2023-02-17T14:17:47;97453.91;;;14.28;100.00
3796;BME280;1913;50.660;7.834;2023-02-17T14:20:31;97456.06;;;14.20;100.00
3796;BME280;1913;50.660;7.834;2023-02-17T14:23:10;97452.75;;;14.24;100.00
3796;BME280;1913;50.660;7.834;2023-02-17T14:25:42;97456.19;;;14.25;100.00
3796;BME280;1913;50.660;7.834;2023-02-17T14:28:24;97449.88;;;14.26;100.00
3796;BME280;1913;50.660;7.834;2023-02-17T14:30:51;97452.50;;;14.26;100.00
3796;BME280;1913;50.660;7.834;2023-02-17T14:33:20;97460.25;;;14.27;100.00
3796;BME280;1913;50.660;7.834;2023-02-17T14:35:59;97458.66;;;14.45;100.00
3796;BME280;1913;50.660;7.834;2023-02-17T14:38:32;97471.50;;;14.41;100.00
3796;BME280;1913;50.660;7.834;2023-02-17T14:41:05;97460.81;;;14.48;100.00
3796;BME280;1913;50.660;7.834;2023-02-17T14:43:32;97473.00;;;14.55;100.00
3796;BME280;1913;50.660;7.834;2023-02-17T14:45:57;97482.59;;;14.50;100.00
3796;BME280;1913;50.660;7.834;2023-02-17T14:48:23;97481.59;;;14.44;100.00
3796;BME280;1913;50.660;7.834;2023-02-17T14:50:50;97490.75;;;14.48;100.00
3796;BME280;1913;50.660;7.834;2023-02-17T14:55:54;97488.69;;;14.50;100.00